sensor_id;sensor_type;location;lat;lon;timestamp;pressure;altitude;pressure_sealevel;temperature
34023;BMP280;20673;48.980;8.138;2023-07-31T00:01:51;100107.18;;;17.69
34023;BMP280;20673;48.980;8.138;2023-07-31T00:04:17;100110.51;;;17.65
34023;BMP280;20673;48.980;8.138;2023-07-31T00:06:43;100112.01;;;17.58
34023;BMP280;20673;48.980;8.138;2023-07-31T00:09:09;100107.73;;;17.49
34023;BMP280;20673;48.980;8.138;2023-07-31T00:11:36;100104.13;;;17.43
34023;BMP280;20673;48.980;8.138;2023-07-31T00:14:02;100104.59;;;17.37
34023;BMP280;20673;48.980;8.138;2023-07-31T00:16:28;100104.79;;;17.30
34023;BMP280;20673;48.980;8.138;2023-07-31T00:18:55;100105.48;;;17.25
34023;BMP280;20673;48.980;8.138;2023-07-31T00:21:21;100101.06;;;17.20
34023;BMP280;20673;48.980;8.138;2023-07-31T00:23:47;100104.97;;;17.11
34023;BMP280;20673;48.980;8.138;2023-07-31T00:26:13;100101.99;;;17.04
34023;BMP280;20673;48.980;8.138;2023-07-31T00:28:39;100101.39;;;17.00
34023;BMP280;20673;48.980;8.138;2023-07-31T00:31:05;100091.23;;;16.97
34023;BMP280;20673;48.980;8.138;2023-07-31T00:33:31;100095.64;;;16.93
34023;BMP280;20673;48.980;8.138;2023-07-31T00:35:58;100085.51;;;16.90
34023;BMP280;20673;48.980;8.138;2023-07-31T00:38:24;100086.20;;;16.86
34023;BMP280;20673;48.980;8.138;2023-07-31T00:40:50;100083.06;;;16.82
34023;BMP280;20673;48.980;8.138;2023-07-31T00:43:16;100083.72;;;16.76
34023;BMP280;20673;48.980;8.138;2023-07-31T00:45:42;100080.76;;;16.68
34023;BMP280;20673;48.980;8.138;2023-07-31T00:48:08;100081.39;;;16.61
34023;BMP280;20673;48.980;8.138;2023-07-31T00:50:35;100081.26;;;16.58
34023;BMP280;20673;48.980;8.138;2023-07-31T00:53:02;100082.45;;;16.53
34023;BMP280;20673;48.980;8.138;2023-07-31T00:55:30;100078.88;;;16.53
34023;BMP280;20673;48.980;8.138;2023-07-31T00:57:56;100070.65;;;16.58
34023;BMP280;20673;48.980;8.138;2023-07-31T01:00:22;100071.03;;;16.65
34023;BMP280;20673;48.980;8.138;2023-07-31T01:02:50;100067.83;;;16.76
34023;BMP280;20673;48.980;8.138;2023-07-31T01:05:33;100064.72;;;16.82
34023;BMP280;20673;48.980;8.138;2023-07-31T01:08:05;100065.95;;;16.91
34023;BMP280;20673;48.980;8.138;2023-07-31T01:10:41;100068.61;;;16.99
34023;BMP280;20673;48.980;8.138;2023-07-31T01:13:07;100070.92;;;16.97
34023;BMP280;20673;48.980;8.138;2023-07-31T01:15:34;100068.47;;;16.97
34023;BMP280;20673;48.980;8.138;2023-07-31T01:18:00;100066.01;;;16.86
34023;BMP280;20673;48.980;8.138;2023-07-31T01:20:27;100071.16;;;16.78
34023;BMP280;20673;48.980;8.138;2023-07-31T01:26:12;100070.81;;;16.65
34023;BMP280;20673;48.980;8.138;2023-07-31T01:31:25;100070.91;;;16.49
34023;BMP280;20673;48.980;8.138;2023-07-31T01:33:58;100070.86;;;16.43
34023;BMP280;20673;48.980;8.138;2023-07-31T01:36:26;100065.13;;;16.38
34023;BMP280;20673;48.980;8.138;2023-07-31T01:38:58;100068.54;;;16.33
34023;BMP280;20673;48.980;8.138;2023-07-31T01:41:25;100067.68;;;16.30
34023;BMP280;20673;48.980;8.138;2023-07-31T01:43:51;100059.64;;;16.30
34023;BMP280;20673;48.980;8.138;2023-07-31T01:46:17;100053.59;;;16.26
34023;BMP280;20673;48.980;8.138;2023-07-31T01:48:43;100048.53;;;16.23
34023;BMP280;20673;48.980;8.138;2023-07-31T01:51:09;100044.50;;;16.18
34023;BMP280;20673;48.980;8.138;2023-07-31T01:53:35;100042.00;;;16.13
34023;BMP280;20673;48.980;8.138;2023-07-31T01:56:01;100032.33;;;16.15
34023;BMP280;20673;48.980;8.138;2023-07-31T01:58:27;100029.99;;;16.15
34023;BMP280;20673;48.980;8.138;2023-07-31T02:00:54;100027.28;;;16.14
34023;BMP280;20673;48.980;8.138;2023-07-31T02:03:20;100038.09;;;16.10
34023;BMP280;20673;48.980;8.138;2023-07-31T02:05:48;100033.45;;;16.08
34023;BMP280;20673;48.980;8.138;2023-07-31T02:08:15;100033.43;;;16.08
34023;BMP280;20673;48.980;8.138;2023-07-31T02:10:41;100033.52;;;16.07
34023;BMP280;20673;48.980;8.138;2023-07-31T02:13:08;100027.97;;;16.08
34023;BMP280;20673;48.980;8.138;2023-07-31T02:15:36;100029.14;;;16.05
34023;BMP280;20673;48.980;8.138;2023-07-31T02:18:02;100031.48;;;16.04
34023;BMP280;20673;48.980;8.138;2023-07-31T02:20:28;100021.16;;;16.02
34023;BMP280;20673;48.980;8.138;2023-07-31T02:22:54;100019.93;;;16.00
34023;BMP280;20673;48.980;8.138;2023-07-31T02:25:20;100012.53;;;16.03
34023;BMP280;20673;48.980;8.138;2023-07-31T02:27:46;100005.75;;;16.04
34023;BMP280;20673;48.980;8.138;2023-07-31T02:30:13;100002.47;;;16.09
34023;BMP280;20673;48.980;8.138;2023-07-31T02:32:39;100008.67;;;16.09
34023;BMP280;20673;48.980;8.138;2023-07-31T02:35:06;100011.99;;;16.13
34023;BMP280;20673;48.980;8.138;2023-07-31T02:37:34;100011.70;;;16.13
34023;BMP280;20673;48.980;8.138;2023-07-31T02:40:00;100014.65;;;16.14
34023;BMP280;20673;48.980;8.138;2023-07-31T02:42:26;100016.54;;;16.11
34023;BMP280;20673;48.980;8.138;2023-07-31T02:44:52;100008.03;;;16.10
34023;BMP280;20673;48.980;8.138;2023-07-31T02:47:20;100004.17;;;16.11
34023;BMP280;20673;48.980;8.138;2023-07-31T02:49:46;100001.97;;;16.12
34023;BMP280;20673;48.980;8.138;2023-07-31T02:52:12;100003.37;;;16.15
34023;BMP280;20673;48.980;8.138;2023-07-31T02:54:38;100008.43;;;16.17
34023;BMP280;20673;48.980;8.138;2023-07-31T02:57:04;100012.65;;;16.18
34023;BMP280;20673;48.980;8.138;2023-07-31T02:59:31;100007.43;;;16.20
34023;BMP280;20673;48.980;8.138;2023-07-31T03:01:57;100011.03;;;16.20
34023;BMP280;20673;48.980;8.138;2023-07-31T03:04:23;100010.96;;;16.22
34023;BMP280;20673;48.980;8.138;2023-07-31T03:06:49;100010.90;;;16.25
34023;BMP280;20673;48.980;8.138;2023-07-31T03:09:15;100010.23;;;16.28
34023;BMP280;20673;48.980;8.138;2023-07-31T03:11:41;100002.52;;;16.31
34023;BMP280;20673;48.980;8.138;2023-07-31T03:14:07;99988.87;;;16.32
34023;BMP280;20673;48.980;8.138;2023-07-31T03:16:33;99995.51;;;16.35
34023;BMP280;20673;48.980;8.138;2023-07-31T03:18:59;99998.58;;;16.34
34023;BMP280;20673;48.980;8.138;2023-07-31T03:21:25;99993.81;;;16.43
34023;BMP280;20673;48.980;8.138;2023-07-31T03:23:51;99996.78;;;16.48
34023;BMP280;20673;48.980;8.138;2023-07-31T03:26:17;100002.75;;;16.47
34023;BMP280;20673;48.980;8.138;2023-07-31T03:28:44;100007.62;;;16.50
34023;BMP280;20673;48.980;8.138;2023-07-31T03:31:10;100010.14;;;16.49
34023;BMP280;20673;48.980;8.138;2023-07-31T03:33:37;100006.97;;;16.51
34023;BMP280;20673;48.980;8.138;2023-07-31T03:36:04;100007.43;;;16.51
34023;BMP280;20673;48.980;8.138;2023-07-31T03:38:30;100004.03;;;16.52
34023;BMP280;20673;48.980;8.138;2023-07-31T03:40:56;100004.27;;;16.55
34023;BMP280;20673;48.980;8.138;2023-07-31T03:43:24;100003.79;;;16.60
34023;BMP280;20673;48.980;8.138;2023-07-31T03:45:51;100004.29;;;16.57
34023;BMP280;20673;48.980;8.138;2023-07-31T03:48:17;100000.48;;;16.60
34023;BMP280;20673;48.980;8.138;2023-07-31T03:50:43;100008.25;;;16.59
34023;BMP280;20673;48.980;8.138;2023-07-31T03:53:09;100012.24;;;16.59
34023;BMP280;20673;48.980;8.138;2023-07-31T03:55:35;100005.93;;;16.61
34023;BMP280;20673;48.980;8.138;2023-07-31T03:58:01;100003.73;;;16.62
34023;BMP280;20673;48.980;8.138;2023-07-31T04:00:27;100010.03;;;16.62
34023;BMP280;20673;48.980;8.138;2023-07-31T04:02:53;100009.20;;;16.64
34023;BMP280;20673;48.980;8.138;2023-07-31T04:05:19;100009.41;;;16.64
34023;BMP280;20673;48.980;8.138;2023-07-31T04:07:46;100006.84;;;16.64
34023;BMP280;20673;48.980;8.138;2023-07-31T04:10:12;100004.36;;;16.65
34023;BMP280;20673;48.980;8.138;2023-07-31T04:12:38;100001.31;;;16.64
34023;BMP280;20673;48.980;8.138;2023-07-31T04:15:05;100002.92;;;16.66
34023;BMP280;20673;48.980;8.138;2023-07-31T04:17:31;100007.86;;;16.64
34023;BMP280;20673;48.980;8.138;2023-07-31T04:19:57;100007.20;;;16.63
34023;BMP280;20673;48.980;8.138;2023-07-31T04:22:24;100004.35;;;16.63
34023;BMP280;20673;48.980;8.138;2023-07-31T04:24:50;100006.43;;;16.63
34023;BMP280;20673;48.980;8.138;2023-07-31T04:27:16;100007.25;;;16.65
34023;BMP280;20673;48.980;8.138;2023-07-31T04:29:42;99997.11;;;16.64
34023;BMP280;20673;48.980;8.138;2023-07-31T04:32:10;99989.51;;;16.65
34023;BMP280;20673;48.980;8.138;2023-07-31T04:34:36;99988.42;;;16.65
34023;BMP280;20673;48.980;8.138;2023-07-31T04:37:02;99989.68;;;16.71
34023;BMP280;20673;48.980;8.138;2023-07-31T04:39:29;99987.34;;;16.70
34023;BMP280;20673;48.980;8.138;2023-07-31T04:41:55;99986.08;;;16.74
34023;BMP280;20673;48.980;8.138;2023-07-31T04:44:21;99993.18;;;16.76
34023;BMP280;20673;48.980;8.138;2023-07-31T04:46:47;99992.78;;;16.80
34023;BMP280;20673;48.980;8.138;2023-07-31T04:49:13;99989.78;;;16.82
34023;BMP280;20673;48.980;8.138;2023-07-31T04:51:39;99988.12;;;16.86
34023;BMP280;20673;48.980;8.138;2023-07-31T04:54:05;99991.05;;;16.90
34023;BMP280;20673;48.980;8.138;2023-07-31T04:56:31;99984.43;;;16.92
34023;BMP280;20673;48.980;8.138;2023-07-31T04:58:57;99990.72;;;16.95
34023;BMP280;20673;48.980;8.138;2023-07-31T05:01:23;99983.11;;;16.96
34023;BMP280;20673;48.980;8.138;2023-07-31T05:03:49;99981.68;;;17.04
34023;BMP280;20673;48.980;8.138;2023-07-31T05:06:18;99981.72;;;17.10
34023;BMP280;20673;48.980;8.138;2023-07-31T05:08:46;99982.36;;;17.15
34023;BMP280;20673;48.980;8.138;2023-07-31T05:11:12;99977.50;;;17.19
34023;BMP280;20673;48.980;8.138;2023-07-31T05:13:38;99978.49;;;17.18
34023;BMP280;20673;48.980;8.138;2023-07-31T05:16:04;99976.15;;;17.25
34023;BMP280;20673;48.980;8.138;2023-07-31T05:18:30;99960.92;;;17.33
34023;BMP280;20673;48.980;8.138;2023-07-31T05:20:56;99960.15;;;17.35
34023;BMP280;20673;48.980;8.138;2023-07-31T05:23:22;99969.00;;;17.46
34023;BMP280;20673;48.980;8.138;2023-07-31T05:25:48;99971.13;;;17.54
34023;BMP280;20673;48.980;8.138;2023-07-31T05:28:14;99965.03;;;17.54
34023;BMP280;20673;48.980;8.138;2023-07-31T05:30:40;99973.65;;;17.61
34023;BMP280;20673;48.980;8.138;2023-07-31T05:33:06;99970.50;;;17.73
34023;BMP280;20673;48.980;8.138;2023-07-31T05:35:32;99967.64;;;17.80
34023;BMP280;20673;48.980;8.138;2023-07-31T05:37:59;99967.78;;;17.90
34023;BMP280;20673;48.980;8.138;2023-07-31T05:40:25;99965.95;;;17.98
34023;BMP280;20673;48.980;8.138;2023-07-31T05:42:51;99970.09;;;17.97
34023;BMP280;20673;48.980;8.138;2023-07-31T05:45:17;99966.08;;;18.03
34023;BMP280;20673;48.980;8.138;2023-07-31T05:47:43;99965.55;;;18.05
34023;BMP280;20673;48.980;8.138;2023-07-31T05:50:09;99964.56;;;18.15
34023;BMP280;20673;48.980;8.138;2023-07-31T05:52:35;99963.79;;;18.19
34023;BMP280;20673;48.980;8.138;2023-07-31T05:55:01;99966.17;;;18.27
34023;BMP280;20673;48.980;8.138;2023-07-31T05:57:28;99957.08;;;18.31
34023;BMP280;20673;48.980;8.138;2023-07-31T05:59:54;99953.73;;;18.38
34023;BMP280;20673;48.980;8.138;2023-07-31T06:02:20;99954.31;;;18.43
34023;BMP280;20673;48.980;8.138;2023-07-31T06:04:46;99955.20;;;18.49
34023;BMP280;20673;48.980;8.138;2023-07-31T06:07:12;99947.03;;;18.59
34023;BMP280;20673;48.980;8.138;2023-07-31T06:09:38;99953.19;;;18.63
34023;BMP280;20673;48.980;8.138;2023-07-31T06:12:05;99957.59;;;18.64
34023;BMP280;20673;48.980;8.138;2023-07-31T06:14:31;99953.90;;;18.66
34023;BMP280;20673;48.980;8.138;2023-07-31T06:16:57;99959.69;;;18.68
34023;BMP280;20673;48.980;8.138;2023-07-31T06:19:23;99965.14;;;18.79
34023;BMP280;20673;48.980;8.138;2023-07-31T06:21:50;99968.43;;;18.93
34023;BMP280;20673;48.980;8.138;2023-07-31T06:24:16;99968.44;;;19.10
34023;BMP280;20673;48.980;8.138;2023-07-31T06:26:44;99963.17;;;19.16
34023;BMP280;20673;48.980;8.138;2023-07-31T06:29:10;99962.45;;;19.18
34023;BMP280;20673;48.980;8.138;2023-07-31T06:31:36;99960.03;;;19.17
34023;BMP280;20673;48.980;8.138;2023-07-31T06:34:02;99959.08;;;19.18
34023;BMP280;20673;48.980;8.138;2023-07-31T06:36:28;99961.30;;;19.16
34023;BMP280;20673;48.980;8.138;2023-07-31T06:38:54;99955.25;;;19.14
34023;BMP280;20673;48.980;8.138;2023-07-31T06:41:20;99955.88;;;19.10
34023;BMP280;20673;48.980;8.138;2023-07-31T06:43:46;99950.66;;;19.07
34023;BMP280;20673;48.980;8.138;2023-07-31T06:46:12;99951.05;;;18.99
34023;BMP280;20673;48.980;8.138;2023-07-31T06:48:39;99956.73;;;19.01
34023;BMP280;20673;48.980;8.138;2023-07-31T06:51:05;99960.03;;;18.99
34023;BMP280;20673;48.980;8.138;2023-07-31T06:53:31;99954.45;;;18.97
34023;BMP280;20673;48.980;8.138;2023-07-31T06:55:57;99956.37;;;18.97
34023;BMP280;20673;48.980;8.138;2023-07-31T06:58:23;99953.92;;;19.08
34023;BMP280;20673;48.980;8.138;2023-07-31T07:00:49;99943.61;;;19.23
34023;BMP280;20673;48.980;8.138;2023-07-31T07:03:18;99954.87;;;19.18
34023;BMP280;20673;48.980;8.138;2023-07-31T07:05:44;99945.68;;;19.28
34023;BMP280;20673;48.980;8.138;2023-07-31T07:08:10;99944.79;;;19.36
34023;BMP280;20673;48.980;8.138;2023-07-31T07:10:37;99942.92;;;19.34
34023;BMP280;20673;48.980;8.138;2023-07-31T07:13:03;99950.47;;;19.44
34023;BMP280;20673;48.980;8.138;2023-07-31T07:15:30;99953.43;;;19.51
34023;BMP280;20673;48.980;8.138;2023-07-31T07:17:56;99950.20;;;19.68
34023;BMP280;20673;48.980;8.138;2023-07-31T07:20:22;99944.54;;;19.67
34023;BMP280;20673;48.980;8.138;2023-07-31T07:22:48;99940.43;;;19.78
34023;BMP280;20673;48.980;8.138;2023-07-31T07:25:15;99933.47;;;19.88
34023;BMP280;20673;48.980;8.138;2023-07-31T07:27:41;99945.03;;;19.85
34023;BMP280;20673;48.980;8.138;2023-07-31T07:30:07;99933.67;;;19.95
34023;BMP280;20673;48.980;8.138;2023-07-31T07:32:34;99929.86;;;20.13
34023;BMP280;20673;48.980;8.138;2023-07-31T07:35:00;99930.20;;;20.20
34023;BMP280;20673;48.980;8.138;2023-07-31T07:37:26;99927.33;;;20.20
34023;BMP280;20673;48.980;8.138;2023-07-31T07:39:52;99920.11;;;20.47
34023;BMP280;20673;48.980;8.138;2023-07-31T07:42:18;99920.09;;;20.58
34023;BMP280;20673;48.980;8.138;2023-07-31T07:44:44;99920.80;;;20.79
34023;BMP280;20673;48.980;8.138;2023-07-31T07:47:10;99920.07;;;20.79
34023;BMP280;20673;48.980;8.138;2023-07-31T07:49:36;99915.50;;;20.53
34023;BMP280;20673;48.980;8.138;2023-07-31T07:52:04;99919.34;;;20.72
34023;BMP280;20673;48.980;8.138;2023-07-31T07:54:31;99917.84;;;20.90
34023;BMP280;20673;48.980;8.138;2023-07-31T07:56:57;99918.08;;;20.62
34023;BMP280;20673;48.980;8.138;2023-07-31T07:59:24;99922.53;;;20.74
34023;BMP280;20673;48.980;8.138;2023-07-31T08:01:50;99921.68;;;20.74
34023;BMP280;20673;48.980;8.138;2023-07-31T08:04:16;99931.79;;;20.91
34023;BMP280;20673;48.980;8.138;2023-07-31T08:06:42;99915.37;;;21.04
34023;BMP280;20673;48.980;8.138;2023-07-31T08:09:08;99911.26;;;21.26
34023;BMP280;20673;48.980;8.138;2023-07-31T08:11:35;99911.36;;;21.55
34023;BMP280;20673;48.980;8.138;2023-07-31T08:14:01;99913.77;;;21.73
34023;BMP280;20673;48.980;8.138;2023-07-31T08:16:27;99912.53;;;21.82
34023;BMP280;20673;48.980;8.138;2023-07-31T08:18:53;99913.14;;;21.78
34023;BMP280;20673;48.980;8.138;2023-07-31T08:21:21;99909.61;;;21.69
34023;BMP280;20673;48.980;8.138;2023-07-31T08:23:47;99910.64;;;21.47
34023;BMP280;20673;48.980;8.138;2023-07-31T08:26:18;99906.64;;;21.45
34023;BMP280;20673;48.980;8.138;2023-07-31T08:28:44;99915.50;;;21.66
34023;BMP280;20673;48.980;8.138;2023-07-31T08:31:11;99908.06;;;21.62
34023;BMP280;20673;48.980;8.138;2023-07-31T08:33:38;99891.61;;;21.77
34023;BMP280;20673;48.980;8.138;2023-07-31T08:36:04;99883.54;;;21.85
34023;BMP280;20673;48.980;8.138;2023-07-31T08:38:30;99878.93;;;22.32
34023;BMP280;20673;48.980;8.138;2023-07-31T08:40:57;99874.15;;;22.70
34023;BMP280;20673;48.980;8.138;2023-07-31T08:43:27;99875.24;;;22.91
34023;BMP280;20673;48.980;8.138;2023-07-31T08:45:54;99877.47;;;23.14
34023;BMP280;20673;48.980;8.138;2023-07-31T08:48:22;99878.50;;;22.97
34023;BMP280;20673;48.980;8.138;2023-07-31T08:50:51;99880.69;;;23.21
34023;BMP280;20673;48.980;8.138;2023-07-31T08:53:19;99881.51;;;23.21
34023;BMP280;20673;48.980;8.138;2023-07-31T08:55:45;99879.33;;;23.52
34023;BMP280;20673;48.980;8.138;2023-07-31T08:58:13;99884.56;;;23.68
34023;BMP280;20673;48.980;8.138;2023-07-31T09:00:42;99873.29;;;23.55
34023;BMP280;20673;48.980;8.138;2023-07-31T09:03:14;99875.04;;;23.46
34023;BMP280;20673;48.980;8.138;2023-07-31T09:05:46;99870.48;;;23.59
34023;BMP280;20673;48.980;8.138;2023-07-31T09:08:20;99864.86;;;23.91
34023;BMP280;20673;48.980;8.138;2023-07-31T09:10:44;99871.89;;;23.66
34023;BMP280;20673;48.980;8.138;2023-07-31T09:13:14;99860.27;;;23.82
34023;BMP280;20673;48.980;8.138;2023-07-31T09:15:44;99852.67;;;23.68
34023;BMP280;20673;48.980;8.138;2023-07-31T09:18:11;99842.98;;;23.66
34023;BMP280;20673;48.980;8.138;2023-07-31T09:20:38;99847.17;;;23.37
34023;BMP280;20673;48.980;8.138;2023-07-31T09:23:10;99834.17;;;23.60
34023;BMP280;20673;48.980;8.138;2023-07-31T09:25:38;99823.79;;;23.52
34023;BMP280;20673;48.980;8.138;2023-07-31T09:28:08;99822.73;;;23.47
34023;BMP280;20673;48.980;8.138;2023-07-31T09:30:51;99828.17;;;23.83
34023;BMP280;20673;48.980;8.138;2023-07-31T09:33:20;99828.40;;;23.87
34023;BMP280;20673;48.980;8.138;2023-07-31T09:35:47;99832.73;;;23.57
34023;BMP280;20673;48.980;8.138;2023-07-31T09:38:17;99828.11;;;23.44
34023;BMP280;20673;48.980;8.138;2023-07-31T09:40:48;99828.23;;;23.40
34023;BMP280;20673;48.980;8.138;2023-07-31T09:43:20;99827.12;;;23.22
34023;BMP280;20673;48.980;8.138;2023-07-31T09:45:47;99822.94;;;23.28
34023;BMP280;20673;48.980;8.138;2023-07-31T09:48:17;99821.43;;;23.16
34023;BMP280;20673;48.980;8.138;2023-07-31T09:50:48;99823.04;;;23.18
34023;BMP280;20673;48.980;8.138;2023-07-31T09:53:16;99819.75;;;23.06
34023;BMP280;20673;48.980;8.138;2023-07-31T09:55:43;99809.76;;;23.01
34023;BMP280;20673;48.980;8.138;2023-07-31T09:58:11;99817.91;;;22.99
34023;BMP280;20673;48.980;8.138;2023-07-31T10:00:39;99815.54;;;23.13
34023;BMP280;20673;48.980;8.138;2023-07-31T10:03:08;99820.20;;;23.45
34023;BMP280;20673;48.980;8.138;2023-07-31T10:05:38;99817.58;;;23.83
34023;BMP280;20673;48.980;8.138;2023-07-31T10:08:08;99804.17;;;23.88
34023;BMP280;20673;48.980;8.138;2023-07-31T10:10:42;99802.09;;;23.50
34023;BMP280;20673;48.980;8.138;2023-07-31T10:13:09;99802.54;;;23.60
34023;BMP280;20673;48.980;8.138;2023-07-31T10:15:36;99804.62;;;23.66
34023;BMP280;20673;48.980;8.138;2023-07-31T10:18:07;99807.39;;;23.42
34023;BMP280;20673;48.980;8.138;2023-07-31T10:20:35;99802.78;;;23.87
34023;BMP280;20673;48.980;8.138;2023-07-31T10:23:03;99804.12;;;23.92
34023;BMP280;20673;48.980;8.138;2023-07-31T10:25:30;99801.86;;;24.00
34023;BMP280;20673;48.980;8.138;2023-07-31T10:27:58;99804.68;;;24.04
34023;BMP280;20673;48.980;8.138;2023-07-31T10:30:29;99799.39;;;24.60
34023;BMP280;20673;48.980;8.138;2023-07-31T10:32:56;99822.94;;;24.51
34023;BMP280;20673;48.980;8.138;2023-07-31T10:35:22;99814.93;;;25.37
34023;BMP280;20673;48.980;8.138;2023-07-31T10:37:48;99826.54;;;25.43
34023;BMP280;20673;48.980;8.138;2023-07-31T10:40:26;99813.26;;;25.27
34023;BMP280;20673;48.980;8.138;2023-07-31T10:42:55;99813.65;;;26.18
34023;BMP280;20673;48.980;8.138;2023-07-31T10:45:44;99803.10;;;25.99
34023;BMP280;20673;48.980;8.138;2023-07-31T10:48:15;99804.24;;;26.17
34023;BMP280;20673;48.980;8.138;2023-07-31T10:50:50;99810.35;;;26.03
34023;BMP280;20673;48.980;8.138;2023-07-31T10:53:31;99815.73;;;26.01
34023;BMP280;20673;48.980;8.138;2023-07-31T10:56:04;99823.61;;;26.09
34023;BMP280;20673;48.980;8.138;2023-07-31T10:58:28;99811.65;;;25.81
34023;BMP280;20673;48.980;8.138;2023-07-31T11:01:05;99792.47;;;25.58
34023;BMP280;20673;48.980;8.138;2023-07-31T11:03:47;99799.87;;;25.31
34023;BMP280;20673;48.980;8.138;2023-07-31T11:06:16;99790.33;;;25.19
34023;BMP280;20673;48.980;8.138;2023-07-31T11:08:49;99780.50;;;25.12
34023;BMP280;20673;48.980;8.138;2023-07-31T11:11:19;99792.41;;;25.42
34023;BMP280;20673;48.980;8.138;2023-07-31T11:13:53;99782.42;;;25.86
34023;BMP280;20673;48.980;8.138;2023-07-31T11:16:25;99779.82;;;25.46
34023;BMP280;20673;48.980;8.138;2023-07-31T11:18:52;99795.15;;;25.91
34023;BMP280;20673;48.980;8.138;2023-07-31T11:21:22;99774.10;;;25.77
34023;BMP280;20673;48.980;8.138;2023-07-31T11:23:56;99773.20;;;25.82
34023;BMP280;20673;48.980;8.138;2023-07-31T11:26:19;99776.18;;;25.90
34023;BMP280;20673;48.980;8.138;2023-07-31T11:28:49;99763.58;;;26.12
34023;BMP280;20673;48.980;8.138;2023-07-31T11:31:17;99762.60;;;26.00
34023;BMP280;20673;48.980;8.138;2023-07-31T11:33:44;99755.01;;;25.81
34023;BMP280;20673;48.980;8.138;2023-07-31T11:36:20;99761.29;;;25.61
34023;BMP280;20673;48.980;8.138;2023-07-31T11:38:47;99763.72;;;26.02
34023;BMP280;20673;48.980;8.138;2023-07-31T11:41:15;99764.43;;;25.39
34023;BMP280;20673;48.980;8.138;2023-07-31T11:43:42;99772.69;;;25.61
34023;BMP280;20673;48.980;8.138;2023-07-31T11:46:13;99766.48;;;25.45
34023;BMP280;20673;48.980;8.138;2023-07-31T11:48:41;99760.39;;;25.71
34023;BMP280;20673;48.980;8.138;2023-07-31T11:51:11;99755.64;;;26.22
34023;BMP280;20673;48.980;8.138;2023-07-31T11:53:45;99743.62;;;26.34
34023;BMP280;20673;48.980;8.138;2023-07-31T11:56:19;99735.59;;;26.52
34023;BMP280;20673;48.980;8.138;2023-07-31T11:58:49;99719.72;;;25.99
34023;BMP280;20673;48.980;8.138;2023-07-31T12:01:19;99731.92;;;25.86
34023;BMP280;20673;48.980;8.138;2023-07-31T12:03:47;99724.17;;;26.40
34023;BMP280;20673;48.980;8.138;2023-07-31T12:06:14;99724.42;;;26.15
34023;BMP280;20673;48.980;8.138;2023-07-31T12:08:40;99721.29;;;25.96
34023;BMP280;20673;48.980;8.138;2023-07-31T12:11:09;99715.98;;;26.40
34023;BMP280;20673;48.980;8.138;2023-07-31T12:13:42;99712.13;;;26.53
34023;BMP280;20673;48.980;8.138;2023-07-31T12:16:08;99702.06;;;26.43
34023;BMP280;20673;48.980;8.138;2023-07-31T12:18:37;99717.72;;;26.75
34023;BMP280;20673;48.980;8.138;2023-07-31T12:21:08;99709.80;;;26.70
34023;BMP280;20673;48.980;8.138;2023-07-31T12:23:37;99702.33;;;26.19
34023;BMP280;20673;48.980;8.138;2023-07-31T12:28:49;99686.11;;;25.69
34023;BMP280;20673;48.980;8.138;2023-07-31T12:31:19;99692.26;;;25.58
34023;BMP280;20673;48.980;8.138;2023-07-31T12:33:49;99693.69;;;25.40
34023;BMP280;20673;48.980;8.138;2023-07-31T12:36:23;99692.42;;;25.45
34023;BMP280;20673;48.980;8.138;2023-07-31T12:38:46;99692.16;;;25.39
34023;BMP280;20673;48.980;8.138;2023-07-31T12:41:13;99683.83;;;25.59
34023;BMP280;20673;48.980;8.138;2023-07-31T12:43:41;99693.84;;;25.29
34023;BMP280;20673;48.980;8.138;2023-07-31T12:46:08;99683.26;;;25.46
34023;BMP280;20673;48.980;8.138;2023-07-31T12:48:35;99671.33;;;25.45
34023;BMP280;20673;48.980;8.138;2023-07-31T12:51:02;99676.61;;;25.24
34023;BMP280;20673;48.980;8.138;2023-07-31T12:53:29;99661.92;;;25.36
34023;BMP280;20673;48.980;8.138;2023-07-31T12:55:58;99659.15;;;25.39
34023;BMP280;20673;48.980;8.138;2023-07-31T12:58:25;99649.55;;;25.42
34023;BMP280;20673;48.980;8.138;2023-07-31T13:00:52;99648.20;;;25.37
34023;BMP280;20673;48.980;8.138;2023-07-31T13:03:19;99644.01;;;25.27
34023;BMP280;20673;48.980;8.138;2023-07-31T13:05:45;99644.41;;;25.08
34023;BMP280;20673;48.980;8.138;2023-07-31T13:08:11;99645.27;;;24.96
34023;BMP280;20673;48.980;8.138;2023-07-31T13:10:37;99637.89;;;24.97
34023;BMP280;20673;48.980;8.138;2023-07-31T13:13:04;99634.25;;;24.81
34023;BMP280;20673;48.980;8.138;2023-07-31T13:15:32;99630.04;;;24.65
34023;BMP280;20673;48.980;8.138;2023-07-31T13:17:58;99636.43;;;24.71
34023;BMP280;20673;48.980;8.138;2023-07-31T13:20:25;99627.63;;;24.69
34023;BMP280;20673;48.980;8.138;2023-07-31T13:22:51;99632.42;;;24.60
34023;BMP280;20673;48.980;8.138;2023-07-31T13:25:17;99630.04;;;24.69
34023;BMP280;20673;48.980;8.138;2023-07-31T13:27:44;99622.22;;;24.88
34023;BMP280;20673;48.980;8.138;2023-07-31T13:30:10;99624.40;;;24.89
34023;BMP280;20673;48.980;8.138;2023-07-31T13:32:36;99619.83;;;25.05
34023;BMP280;20673;48.980;8.138;2023-07-31T13:35:08;99612.62;;;25.20
34023;BMP280;20673;48.980;8.138;2023-07-31T13:37:36;99613.54;;;25.20
34023;BMP280;20673;48.980;8.138;2023-07-31T13:40:03;99615.05;;;25.28
34023;BMP280;20673;48.980;8.138;2023-07-31T13:42:33;99612.02;;;25.30
34023;BMP280;20673;48.980;8.138;2023-07-31T13:44:59;99614.31;;;25.38
34023;BMP280;20673;48.980;8.138;2023-07-31T13:47:25;99602.82;;;25.22
34023;BMP280;20673;48.980;8.138;2023-07-31T13:49:51;99601.67;;;25.21
34023;BMP280;20673;48.980;8.138;2023-07-31T13:52:17;99596.67;;;25.19
34023;BMP280;20673;48.980;8.138;2023-07-31T13:54:43;99605.72;;;25.19
34023;BMP280;20673;48.980;8.138;2023-07-31T13:57:09;99611.11;;;24.87
34023;BMP280;20673;48.980;8.138;2023-07-31T13:59:35;99610.84;;;24.69
34023;BMP280;20673;48.980;8.138;2023-07-31T14:02:02;99612.20;;;24.68
34023;BMP280;20673;48.980;8.138;2023-07-31T14:04:29;99605.88;;;24.67
34023;BMP280;20673;48.980;8.138;2023-07-31T14:06:56;99611.45;;;24.66
34023;BMP280;20673;48.980;8.138;2023-07-31T14:09:22;99609.58;;;24.63
34023;BMP280;20673;48.980;8.138;2023-07-31T14:11:48;99618.03;;;24.44
34023;BMP280;20673;48.980;8.138;2023-07-31T14:14:15;99611.45;;;24.27